Estcourt Station, ME (04741)

11:09 AM EST on December 20, 2014 (GMT -0500)
Marina Cabano, Marina Pomerleau | Change Station
CLOSE
Current Station
Personal Weather Station
Location: Témiscouata-sur-le-Lac, QUéBEC
Elevation: 585 ft
Nearby Weather Stations

Elev 585 ft 47.68 °N, 68.88 °W | Updated 9 minutes ago

Snow
Snow
22.1 °F
Feels Like 22 °F
N
0.0
Wind Variable Wind from SSE

Today
High -- | Low -- °F
--% Chance of Precip.
Yesterday
High -- | Low -- °F
Precip. -- in
7:20 AM 3:47 PM
Waning Crescent, 3% visible
Pressure 30.35 in
Visibility 7.0 miles
Clouds Overcast 1000 ft
Windchill 22 °F
Dew Point 18 °F
Humidity 82%
Rainfall 0.00 in
Snow Depth Not available.
UV 0 out of 12
Pollen .10 out of 12
Air Quality Not available.
Flu Activity Not available.
METAR KFVE 201553Z AUTO 04007KT 7SM OVC010 M09/M12 A3030 RMK AO2 SNE28 CIG 009V013 SLP277 P0002 T10941117

More Conditions Fewer Conditions

Pressure 30.35 in
Visibility 7.0 miles
Clouds Overcast 1000 ft
Windchill 22 °F
Dew Point 18 °F
Humidity 82%
Rainfall 0.00 in
Snow Depth Not available.
UV 0 out of 12
Pollen .10 out of 12
Air Quality Not available.
Flu Activity Not available.
METAR KFVE 201553Z AUTO 04007KT 7SM OVC010 M09/M12 A3030 RMK AO2 SNE28 CIG 009V013 SLP277 P0002 T10941117

More Conditions Fewer Conditions

10-Day Weather Forecast

Almanac

Astronomy

Dec. 20, 2014 Rise Set
Actual Time
Civil Twilight
Nautical Twilight
Astronomical Twilight
Moon
Length of Visible Light
Length of Day
Tomorrow will be .
, % of the Moon is Illuminated

Today's Extremes

State Highs State Lows

Community

WunderPhotos

Upload Photos

1,779,212 photos uploaded!

WunderBlogs® & News

Nearby

Air Quality

  Air Quality AQ Index Pollutant
Not available.

Snow Depth

Station Depth Elevation

Earthquake Activity

City Distance Mag. Time & Date
Minimum magnitude displayed is 2.5.

Coastal Water Temperatures

Place Temperature

Nearby Weather Stations